Domov               UVHVVR             MKGP            O straneh              
ZDRAVSTVENO VARSTVO RASTLIN
  MREŽA AGROMET. POSTAJ
 ► PROGNOSTIČNA OBVESTILA
AGROMETEOROLOŠKI PODATKI -
ARSO
OBVLADOVANJE TVEGANJ ZARADI
NEUGODNIH VREMENSKIH RAZMER
  ► NARAVNE NESREČE
  ► SUŠA/MOČA
  ► NAMAKANJE
  ► ŽLED (gozdarstvo)
KARTOGRAFSKI PRIKAZI
SPLETNE POVEZAVE
PROJEKTI IN PUBLIKACIJE

AGROMETEOROLOŠKA MREŽA: VREMENSKE POSTAJE IN FENOLOŠKA OPAZOVANJA

Pregled podatkov za lokacijo Purisima, meteorološka postaja 24241

Pregled senzorjev na lokaciji

ID Ime Zadnja
vrednost
Datum
zadnje
spremembe
Tip
senzorja
1001 Temperatura 2 m ( °C) 17,41 °C 25.6.2017 23:30 50YA
1002 Relativna vlaga 2 m (% RH) 92,16 % RH 25.6.2017 23:30 50YA
1472 Padavine (mm) 0 mm 25.6.2017 23:30 Rain-O-Matic
3142 Temperatura tal ( °C) 24,4 °C 25.6.2017 23:30 99TG411E

Pregled podatkov zadnjih 24 ur

Zap.
št.
Datum in čas Purisima
Padavine Relativna
vlaga
2
m
Temperatura
2
m
Temperatura
tal
0 25.6.2017 22:30 0 92,16 17,41 24,4
1 25.6.2017 22:00 0 92,02 17,56 24,43
2 25.6.2017 21:30 0 91,62 17,97 24,44
3 25.6.2017 21:00 0 91,65 18,22 24,48
4 25.6.2017 20:30 0 91,21 18,56 24,5
5 25.6.2017 20:00 0 91,53 18,83 24,54
6 25.6.2017 19:30 0 92,23 19,54 24,57
7 25.6.2017 19:00 0 92,77 19,71 24,63
8 25.6.2017 18:30 0 93,14 18,76 24,72
9 25.6.2017 18:00 0 93,46 18,02 24,79
10 25.6.2017 17:30 0 93,53 18 24,94
11 25.6.2017 17:00 0 92,31 20,1 25,14
12 25.6.2017 16:30 0,2 86,72 22,54 25,2
13 25.6.2017 16:00 0 86,84 23,39 25,19
14 25.6.2017 15:30 0 77,88 25,15 25,13
15 25.6.2017 15:00 0 67,77 26,86 25,08
16 25.6.2017 14:30 0 56,14 29,21 25,01
17 25.6.2017 14:00 0 50,21 30,55 24,94
18 25.6.2017 13:30 0 46,98 30,72 24,91
19 25.6.2017 13:00 0 50,53 29,4 24,92
20 25.6.2017 12:30 0 53,68 27,57 24,97
21 25.6.2017 12:00 0 55,46 26,3 24,97
22 25.6.2017 11:30 0 60,05 24,59 24,98
23 25.6.2017 11:00 0 58,63 27,91 24,95
24 25.6.2017 10:30 0 45,79 29,72 24,92
25 25.6.2017 10:00 0 45,71 30,43 24,92
26 25.6.2017 09:30 0 48,18 30,33 24,94
27 25.6.2017 09:00 0 47,3 30,06 24,95
28 25.6.2017 08:30 0 47,42 29,67 24,98
29 25.6.2017 08:00 0 45,93 29,4 25,03
30 25.6.2017 07:30 0 45,15 28,38 25,07
31 25.6.2017 07:00 0 53,33 25,96 25,13
32 25.6.2017 06:30 0 65,15 24,84 25,19
33 25.6.2017 06:00 0 62,69 23,93 25,25
34 25.6.2017 05:30 0 65,06 24,08 25,28
35 25.6.2017 05:00 0 57,44 24,59 25,33
36 25.6.2017 04:30 0 57,24 23,22 25,38
37 25.6.2017 04:00 0 66,06 22,27 25,44
38 25.6.2017 03:30 0 73,58 22,78 25,47
39 25.6.2017 03:00 0 70,4 22,76 25,51
40 25.6.2017 02:30 0 71,09 23,42 25,54
41 25.6.2017 02:00 0 70,92 24,57 25,57
42 25.6.2017 01:30 0 61,34 25,01 25,6
43 25.6.2017 01:00 0 66,94 24,18 25,66
© 2011 Ministrstvo za kmetijstvo, gozdarstvo in prehrano. Vse pravice pridržane.